createdAt,value
2023-05-21T00:01:56.646Z,20.98
2023-05-21T00:04:58.267Z,19.33
2023-05-21T00:07:59.883Z,21.17
2023-05-21T00:11:01.500Z,21.63
2023-05-21T00:14:03.152Z,19.50
2023-05-21T00:17:05.042Z,19.90
2023-05-21T00:20:08.726Z,19.67
2023-05-21T00:23:10.379Z,21.48
2023-05-21T00:26:11.993Z,20.08
2023-05-21T00:29:14.240Z,20.87
2023-05-21T00:32:16.262Z,26.60
2023-05-21T00:35:18.238Z,21.23
2023-05-21T00:38:19.975Z,17.17
2023-05-21T00:41:23.416Z,20.90
2023-05-21T00:44:25.559Z,19.95
2023-05-21T00:47:29.610Z,20.43
2023-05-21T00:50:32.049Z,21.67
2023-05-21T00:53:35.631Z,21.80
2023-05-21T00:56:37.375Z,19.85
2023-05-21T00:59:39.477Z,22.73
2023-05-21T01:02:42.141Z,21.45
2023-05-21T01:05:45.120Z,20.60
2023-05-21T01:08:47.222Z,21.80
2023-05-21T01:11:51.861Z,22.25
2023-05-21T01:17:55.862Z,24.65
2023-05-21T01:20:57.562Z,20.63
2023-05-21T01:23:59.319Z,20.67
2023-05-21T01:27:03.106Z,18.52
2023-05-21T01:30:05.524Z,22.95
2023-05-21T01:33:27.816Z,22.57
2023-05-21T01:36:34.578Z,22.23
2023-05-21T01:39:39.302Z,21.80
2023-05-21T01:42:44.481Z,21.98
2023-05-21T01:45:47.800Z,22.67
2023-05-21T01:48:52.709Z,27.25
2023-05-21T01:51:54.508Z,23.58
2023-05-21T01:54:57.204Z,22.38
2023-05-21T01:58:01.937Z,22.40
2023-05-21T02:01:05.110Z,24.23
2023-05-21T02:04:06.860Z,22.10
2023-05-21T02:07:10.244Z,21.95
2023-05-21T02:10:12.456Z,22.95
2023-05-21T02:13:14.604Z,23.98
2023-05-21T02:16:16.322Z,24.95
2023-05-21T02:19:18.845Z,24.08
2023-05-21T02:22:20.536Z,22.77
2023-05-21T02:25:22.304Z,24.27
2023-05-21T02:28:24.011Z,23.73
2023-05-21T02:31:26.054Z,25.08
2023-05-21T02:34:30.863Z,24.75
2023-05-21T02:37:35.618Z,23.35
2023-05-21T02:40:37.267Z,22.00
2023-05-21T02:43:39.176Z,22.85
2023-05-21T02:46:41.080Z,23.52
2023-05-21T02:49:42.778Z,22.33
2023-05-21T02:52:44.466Z,23.85
2023-05-21T02:55:46.100Z,22.33
2023-05-21T02:58:47.789Z,23.33
2023-05-21T03:01:49.770Z,25.70
2023-05-21T03:04:51.676Z,25.17
2023-05-21T03:07:53.773Z,20.98
2023-05-21T03:10:55.878Z,24.93
2023-05-21T03:13:57.710Z,23.92
2023-05-21T03:16:59.406Z,22.23
2023-05-21T03:20:01.974Z,24.70
2023-05-21T03:23:04.422Z,24.08
2023-05-21T03:26:06.351Z,23.88
2023-05-21T03:29:08.067Z,25.15
2023-05-21T03:35:12.837Z,23.58
2023-05-21T03:38:14.521Z,25.38
2023-05-21T03:41:16.269Z,25.52
2023-05-21T03:44:22.174Z,23.55
2023-05-21T03:47:46.822Z,23.70
2023-05-21T03:50:48.654Z,26.35
2023-05-21T03:53:51.590Z,25.02
2023-05-21T03:56:53.379Z,24.50
2023-05-21T03:59:56.060Z,25.85
2023-05-21T04:02:57.769Z,26.65
2023-05-21T04:05:59.474Z,26.08
2023-05-21T04:09:01.612Z,24.27
2023-05-21T04:12:03.402Z,22.75
2023-05-21T04:15:05.661Z,24.33
2023-05-21T04:18:07.562Z,24.45
2023-05-21T04:21:09.318Z,23.10
2023-05-21T04:24:12.077Z,23.02
2023-05-21T04:27:39.476Z,22.20
2023-05-21T04:30:42.651Z,22.65
2023-05-21T04:33:46.191Z,24.00
2023-05-21T04:36:48.294Z,26.17
2023-05-21T04:39:50.316Z,19.83
2023-05-21T04:42:51.974Z,23.17
2023-05-21T04:45:56.653Z,25.40
2023-05-21T04:49:02.934Z,25.98
2023-05-21T04:52:04.861Z,22.52
2023-05-21T04:55:08.178Z,20.38
2023-05-21T04:58:13.064Z,24.52
2023-05-21T05:01:19.206Z,22.92
2023-05-21T05:04:21.109Z,23.33
2023-05-21T05:07:23.443Z,21.95
2023-05-21T05:10:25.169Z,21.58
2023-05-21T05:13:29.340Z,20.38
2023-05-21T05:16:31.206Z,21.13
2023-05-21T05:19:33.021Z,20.33
2023-05-21T05:22:34.686Z,24.73
2023-05-21T05:25:36.576Z,19.95
2023-05-21T05:28:40.396Z,23.40
2023-05-21T05:31:42.137Z,23.13
2023-05-21T05:34:46.503Z,20.17
2023-05-21T05:37:48.337Z,22.10
2023-05-21T05:40:49.986Z,21.05
2023-05-21T05:43:51.632Z,20.77
2023-05-21T05:46:56.016Z,21.65
2023-05-21T05:49:57.724Z,21.95
2023-05-21T05:52:59.425Z,25.10
2023-05-21T05:56:01.759Z,20.08
2023-05-21T05:59:06.082Z,18.65
2023-05-21T06:02:11.062Z,21.58
2023-05-21T06:05:12.957Z,21.92
2023-05-21T06:08:15.844Z,20.05
2023-05-21T06:11:18.983Z,17.85
2023-05-21T06:14:20.812Z,20.60
2023-05-21T06:17:23.479Z,18.52
2023-05-21T06:20:27.658Z,19.42
2023-05-21T06:23:29.409Z,17.05
2023-05-21T06:26:31.817Z,21.70
2023-05-21T06:29:34.530Z,19.10
2023-05-21T06:32:37.092Z,20.08
2023-05-21T06:35:40.200Z,18.50
2023-05-21T06:38:44.118Z,19.60
2023-05-21T06:41:46.343Z,17.90
2023-05-21T06:45:13.260Z,17.30
2023-05-21T06:48:18.431Z,16.52
2023-05-21T06:51:21.896Z,18.77
2023-05-21T06:54:26.133Z,17.48
2023-05-21T06:57:28.525Z,19.00
2023-05-21T07:00:30.156Z,17.05
2023-05-21T07:03:31.992Z,19.60
2023-05-21T07:06:34.841Z,19.35
2023-05-21T07:09:36.604Z,19.80
2023-05-21T07:12:38.276Z,18.05
2023-05-21T07:15:39.908Z,16.77
2023-05-21T07:18:41.708Z,17.27
2023-05-21T07:21:43.447Z,19.23
2023-05-21T07:24:45.926Z,19.33
2023-05-21T07:27:47.598Z,18.75
2023-05-21T07:30:50.107Z,18.15
2023-05-21T07:33:55.988Z,16.17
2023-05-21T07:37:02.251Z,18.38
2023-05-21T07:40:04.357Z,17.38
2023-05-21T07:43:06.156Z,19.08
2023-05-21T07:46:09.897Z,17.92
2023-05-21T07:49:16.695Z,19.30
2023-05-21T07:52:19.798Z,16.05
2023-05-21T07:55:21.977Z,18.10
2023-05-21T07:58:24.718Z,21.83
2023-05-21T08:01:31.264Z,16.45
2023-05-21T08:04:34.332Z,17.80
2023-05-21T08:07:36.426Z,17.35
2023-05-21T08:10:38.214Z,17.17
2023-05-21T08:16:46.707Z,16.23
2023-05-21T08:19:48.747Z,15.90
2023-05-21T08:22:50.468Z,15.73
2023-05-21T08:25:53.562Z,15.63
2023-05-21T08:28:55.570Z,17.02
2023-05-21T08:31:57.331Z,16.48
2023-05-21T08:35:00.796Z,16.35
2023-05-21T08:38:31.770Z,16.27
2023-05-21T08:42:09.162Z,16.15
2023-05-21T08:45:13.714Z,15.10
2023-05-21T08:48:17.005Z,15.65
2023-05-21T08:51:19.020Z,13.95
2023-05-21T08:54:23.992Z,14.52
2023-05-21T08:57:26.904Z,14.20
2023-05-21T09:00:29.470Z,15.15
2023-05-21T09:03:33.039Z,13.20
2023-05-21T09:06:35.365Z,13.80
2023-05-21T09:09:46.006Z,13.27
2023-05-21T09:12:48.930Z,12.68
2023-05-21T09:15:51.888Z,15.32
2023-05-21T09:18:55.482Z,13.48
2023-05-21T09:22:06.322Z,13.43
2023-05-21T09:25:10.831Z,12.60
2023-05-21T09:28:15.091Z,14.20
2023-05-21T09:31:17.013Z,15.90
2023-05-21T09:34:18.818Z,11.07
2023-05-21T09:40:28.379Z,11.68
2023-05-21T09:43:31.161Z,13.38
2023-05-21T09:46:40.570Z,12.40
2023-05-21T09:49:44.552Z,11.32
2023-05-21T09:52:46.794Z,11.35
2023-05-21T09:55:57.557Z,12.45
2023-05-21T09:59:06.402Z,13.43
2023-05-21T10:02:23.366Z,11.38
2023-05-21T10:05:29.781Z,11.50
2023-05-21T10:08:36.112Z,11.68
2023-05-21T10:11:39.753Z,10.98
2023-05-21T10:14:43.537Z,12.75
2023-05-21T10:17:46.116Z,9.88
2023-05-21T10:20:48.447Z,9.70
2023-05-21T10:23:51.279Z,10.50
2023-05-21T10:26:53.489Z,9.73
2023-05-21T10:29:57.412Z,9.88
2023-05-21T10:32:59.846Z,10.32
2023-05-21T10:36:01.994Z,12.13
2023-05-21T10:39:03.869Z,10.25
2023-05-21T10:42:24.009Z,10.07
2023-05-21T10:45:38.125Z,10.07
2023-05-21T10:48:52.280Z,9.75
2023-05-21T10:52:41.912Z,10.02
2023-05-21T10:55:55.319Z,12.07
2023-05-21T10:59:22.432Z,12.48
2023-05-21T11:02:27.325Z,10.95
2023-05-21T11:05:40.966Z,9.77
2023-05-21T11:08:47.909Z,11.10
2023-05-21T11:11:58.014Z,9.95
2023-05-21T11:14:59.706Z,10.43
2023-05-21T11:18:01.812Z,11.07
2023-05-21T11:21:09.188Z,11.55
2023-05-21T11:24:19.030Z,11.13
2023-05-21T11:27:47.506Z,10.48
2023-05-21T11:31:27.478Z,11.27
2023-05-21T11:34:39.461Z,10.40
2023-05-21T11:37:41.829Z,12.38
2023-05-21T11:40:56.534Z,11.25
2023-05-21T11:44:01.566Z,10.68
2023-05-21T11:47:04.502Z,11.93
2023-05-21T11:50:07.915Z,12.50
2023-05-21T11:53:12.121Z,11.55
2023-05-21T11:56:14.311Z,10.55
2023-05-21T11:59:18.679Z,10.50
2023-05-21T12:02:22.227Z,10.60
2023-05-21T12:05:24.163Z,11.10
2023-05-21T12:08:25.947Z,11.50
2023-05-21T12:11:27.882Z,11.25
2023-05-21T12:14:29.526Z,11.25
2023-05-21T12:17:31.766Z,9.82
2023-05-21T12:23:36.407Z,10.32
2023-05-21T12:26:38.120Z,10.77
2023-05-21T12:29:42.644Z,10.02
2023-05-21T12:32:44.550Z,10.15
2023-05-21T12:35:49.907Z,10.55
2023-05-21T12:38:52.100Z,9.82
2023-05-21T12:41:54.573Z,11.13
2023-05-21T12:44:57.820Z,12.32
2023-05-21T12:48:03.466Z,11.60
2023-05-21T12:51:05.457Z,13.25
2023-05-21T12:54:13.066Z,14.05
2023-05-21T12:57:19.670Z,11.70
2023-05-21T13:00:24.576Z,10.55
2023-05-21T13:03:26.642Z,11.75
2023-05-21T13:06:28.274Z,12.45
2023-05-21T13:09:29.938Z,10.52
2023-05-21T13:12:32.945Z,12.13
2023-05-21T13:15:34.640Z,12.02
2023-05-21T13:18:36.800Z,11.75
2023-05-21T13:21:38.362Z,11.23
2023-05-21T13:24:40.082Z,11.43
2023-05-21T13:27:42.400Z,12.65
2023-05-21T13:33:45.844Z,11.30
2023-05-21T13:36:47.436Z,12.10
2023-05-21T13:39:49.080Z,11.90
2023-05-21T13:42:50.941Z,11.20
2023-05-21T13:45:52.618Z,13.10
2023-05-21T13:48:54.439Z,13.10
2023-05-21T13:51:58.031Z,11.27
2023-05-21T13:54:59.718Z,11.98
2023-05-21T13:58:01.363Z,12.23
2023-05-21T14:01:03.244Z,11.80
2023-05-21T14:04:05.734Z,14.05
2023-05-21T14:07:07.767Z,12.85
2023-05-21T14:10:09.685Z,11.68
2023-05-21T14:13:19.772Z,13.23
2023-05-21T14:16:24.869Z,12.63
2023-05-21T14:19:26.739Z,12.70
2023-05-21T14:22:28.857Z,12.23
2023-05-21T14:25:30.468Z,11.43
2023-05-21T14:28:32.068Z,11.13
2023-05-21T14:31:33.745Z,14.37
2023-05-21T14:34:35.421Z,12.18
2023-05-21T14:37:37.051Z,11.60
2023-05-21T14:40:38.661Z,12.37
2023-05-21T14:43:40.393Z,12.73
2023-05-21T14:46:42.316Z,13.98
2023-05-21T14:49:43.972Z,12.00
2023-05-21T14:52:46.040Z,11.32
2023-05-21T14:55:47.705Z,13.90
2023-05-21T14:58:49.389Z,13.05
2023-05-21T15:01:51.322Z,13.48
2023-05-21T15:04:53.014Z,13.88
2023-05-21T15:07:58.203Z,11.45
2023-05-21T15:10:59.835Z,11.02
2023-05-21T15:14:01.852Z,11.35
2023-05-21T15:17:03.544Z,10.75
2023-05-21T15:20:05.919Z,11.30
2023-05-21T15:26:18.736Z,11.75
2023-05-21T15:29:20.401Z,10.73
2023-05-21T15:32:22.084Z,10.63
2023-05-21T15:35:23.792Z,10.47
2023-05-21T15:38:25.712Z,10.23
2023-05-21T15:41:27.363Z,10.80
2023-05-21T15:44:29.016Z,13.23
2023-05-21T15:47:30.632Z,11.97
2023-05-21T15:50:32.309Z,12.30
2023-05-21T15:53:33.930Z,17.37
2023-05-21T15:56:35.628Z,18.73
2023-05-21T15:59:37.221Z,12.50
2023-05-21T16:02:40.806Z,15.45
2023-05-21T16:05:42.450Z,14.55
2023-05-21T16:08:44.020Z,13.10
2023-05-21T16:11:45.760Z,13.73
2023-05-21T16:14:50.151Z,13.40
2023-05-21T16:17:51.838Z,14.65
2023-05-21T16:20:55.295Z,15.73
2023-05-21T16:23:56.983Z,14.82
2023-05-21T16:26:58.665Z,13.47
2023-05-21T16:30:00.308Z,14.02
2023-05-21T16:33:02.036Z,13.80
2023-05-21T16:36:03.977Z,13.43
2023-05-21T16:39:05.663Z,13.48
2023-05-21T16:42:07.283Z,16.50
2023-05-21T16:45:09.318Z,14.30
2023-05-21T16:48:12.337Z,15.45
2023-05-21T16:51:14.095Z,14.27
2023-05-21T16:54:15.728Z,14.23
2023-05-21T16:57:17.406Z,14.00
2023-05-21T17:00:19.228Z,15.60
2023-05-21T17:03:21.048Z,14.73
2023-05-21T17:06:23.630Z,14.85
2023-05-21T17:09:25.347Z,14.70
2023-05-21T17:12:26.928Z,16.43
2023-05-21T17:15:28.513Z,13.48
2023-05-21T17:18:31.302Z,15.60
2023-05-21T17:21:32.924Z,15.30
2023-05-21T17:24:34.532Z,15.13
2023-05-21T17:27:36.349Z,16.30
2023-05-21T17:30:38.622Z,15.48
2023-05-21T17:33:40.328Z,14.98
2023-05-21T17:36:41.957Z,14.33
2023-05-21T17:39:43.781Z,15.07
2023-05-21T17:42:45.394Z,14.70
2023-05-21T17:45:47.030Z,16.87
2023-05-21T17:48:48.664Z,14.67
2023-05-21T17:51:50.277Z,15.43
2023-05-21T17:54:51.855Z,15.27
2023-05-21T17:57:53.439Z,16.17
2023-05-21T18:00:55.074Z,13.77
2023-05-21T18:03:56.705Z,13.48
2023-05-21T18:06:58.332Z,15.93
2023-05-21T18:10:00.226Z,16.98
2023-05-21T18:13:01.853Z,15.20
2023-05-21T18:16:03.837Z,14.47
2023-05-21T18:19:08.352Z,16.52
2023-05-21T18:22:10.749Z,15.18
2023-05-21T18:25:12.574Z,14.85
2023-05-21T18:28:14.186Z,17.57
2023-05-21T18:31:17.218Z,15.77
2023-05-21T18:34:18.821Z,14.00
2023-05-21T18:37:20.722Z,15.98
2023-05-21T18:40:23.014Z,16.55
2023-05-21T18:43:24.617Z,16.02
2023-05-21T18:46:26.239Z,14.07
2023-05-21T18:49:33.718Z,15.68
2023-05-21T18:52:35.328Z,14.63
2023-05-21T18:55:36.971Z,16.80
2023-05-21T18:58:38.709Z,16.33
2023-05-21T19:01:40.552Z,15.35
2023-05-21T19:04:42.182Z,13.10
2023-05-21T19:07:43.828Z,16.60
2023-05-21T19:13:47.324Z,18.07
2023-05-21T19:16:48.942Z,18.00
2023-05-21T19:19:55.703Z,15.93
2023-05-21T19:22:57.432Z,17.70
2023-05-21T19:26:00.403Z,16.63
2023-05-21T19:29:02.317Z,18.63
2023-05-21T19:32:06.250Z,17.07
2023-05-21T19:35:08.623Z,15.20
2023-05-21T19:38:11.169Z,14.85
2023-05-21T19:41:13.270Z,16.40
2023-05-21T19:44:15.766Z,15.20
2023-05-21T19:47:17.678Z,17.27
2023-05-21T19:50:19.724Z,15.77
2023-05-21T19:53:21.343Z,16.60
2023-05-21T19:56:22.978Z,17.50
2023-05-21T19:59:24.585Z,17.98
2023-05-21T20:02:28.602Z,18.17
2023-05-21T20:05:30.478Z,16.42
2023-05-21T20:08:32.087Z,17.60
2023-05-21T20:11:34.423Z,19.48
2023-05-21T20:14:36.083Z,18.95
2023-05-21T20:17:39.333Z,16.35
2023-05-21T20:20:43.236Z,17.65
2023-05-21T20:23:45.295Z,16.85
2023-05-21T20:26:46.909Z,16.77
2023-05-21T20:29:49.193Z,16.05
2023-05-21T20:32:50.874Z,16.80
2023-05-21T20:35:53.996Z,16.10
2023-05-21T20:38:57.167Z,16.13
2023-05-21T20:42:00.730Z,16.20
2023-05-21T20:45:03.166Z,17.08
2023-05-21T20:48:06.519Z,18.95
2023-05-21T20:51:08.426Z,16.20
2023-05-21T20:54:11.318Z,16.75
2023-05-21T21:00:16.307Z,17.42
2023-05-21T21:03:18.477Z,19.35
2023-05-21T21:06:20.900Z,18.15
2023-05-21T21:09:22.525Z,17.25
2023-05-21T21:12:26.628Z,18.98
2023-05-21T21:15:28.607Z,18.90
2023-05-21T21:18:30.524Z,17.40
2023-05-21T21:21:32.297Z,18.52
2023-05-21T21:24:33.915Z,17.63
2023-05-21T21:27:35.648Z,18.00
2023-05-21T21:30:40.757Z,18.75
2023-05-21T21:33:42.587Z,17.50
2023-05-21T21:36:44.295Z,17.63
2023-05-21T21:39:46.221Z,19.17
2023-05-21T21:42:47.876Z,23.67
2023-05-21T21:45:49.539Z,20.30
2023-05-21T21:48:51.381Z,18.98
2023-05-21T21:51:57.609Z,16.65
2023-05-21T21:54:59.359Z,17.65
2023-05-21T21:58:01.355Z,20.23
2023-05-21T22:01:03.030Z,18.92
2023-05-21T22:04:04.915Z,17.55
2023-05-21T22:07:06.504Z,17.50
2023-05-21T22:10:08.500Z,18.23
2023-05-21T22:13:10.247Z,19.30
2023-05-21T22:16:11.964Z,17.45
2023-05-21T22:19:15.606Z,16.00
2023-05-21T22:22:17.395Z,17.23
2023-05-21T22:25:19.161Z,16.17
2023-05-21T22:28:22.435Z,18.02
2023-05-21T22:31:24.144Z,16.35
2023-05-21T22:34:25.990Z,17.25
2023-05-21T22:37:28.007Z,18.50
2023-05-21T22:40:29.677Z,18.55
2023-05-21T22:43:33.671Z,20.05
2023-05-21T22:46:35.537Z,17.25
2023-05-21T22:49:38.358Z,20.45
2023-05-21T22:52:40.533Z,18.92
2023-05-21T22:55:42.360Z,18.30
2023-05-21T22:58:45.131Z,18.42
2023-05-21T23:01:46.887Z,19.58
2023-05-21T23:04:49.365Z,19.27
2023-05-21T23:07:51.087Z,19.73
2023-05-21T23:10:52.714Z,21.73
2023-05-21T23:13:54.326Z,17.92
2023-05-21T23:16:55.949Z,18.05
2023-05-21T23:19:57.611Z,18.52
2023-05-21T23:22:59.272Z,19.05
2023-05-21T23:26:01.357Z,20.60
2023-05-21T23:29:03.172Z,20.25
2023-05-21T23:32:05.326Z,22.88
2023-05-21T23:35:08.137Z,19.33
2023-05-21T23:38:09.758Z,21.85
2023-05-21T23:41:11.664Z,18.80
2023-05-21T23:44:13.409Z,20.55
2023-05-21T23:47:15.067Z,19.42
2023-05-21T23:50:16.740Z,19.63
2023-05-21T23:53:18.503Z,22.38
2023-05-21T23:56:20.146Z,18.75
2023-05-21T23:59:21.761Z,19.20
